HALF-HOURLY OBSERVATIONS INDEX

094

Southeast

CAMPANIA (KINCORA)

Site: 094212
Alt: 45.0m
23km NNE of HOBART


  Time     Wind        Temp  DP   Baro     Rain since   Rain past  Vis(m), Cloud(base in m), Weather
  local        km/h                         9am  last   hr   10m    
Mon 11:00  SSW 20/ 30  16.4  1.3  ------    0.0   0.0   0.0   0.0   ----- 
Mon 11:30    S 19/ 30  17.2  0.8  ------    0.0   0.0   0.0   0.0   ----- 
Mon 12:00  SSE 15/ 28  17.1  0.7  ------    0.0   0.0   0.0   0.0   ----- 
Mon 12:30   SE 17/ 22  17.8  1.3  ------    0.0   0.0   0.0   0.0   ----- 
Mon 13:00  ENE 11/ 22  18.5  1.5  ------    0.0   0.0   0.0   0.0   ----- 
Mon 13:30  ESE 20/ 30  18.9  1.4  ------    0.0   0.0   0.0   0.0   ----- 
Mon 14:00  ESE 13/ 20  18.5  1.9  ------    0.0   0.0   0.0   0.0   ----- 
Mon 14:30    S 17/ 24  19.4  2.7  ------    0.0   0.0   0.0   0.0   ----- 
Mon 15:00   SE 19/ 30  19.6  3.7  ------    0.0   0.0   0.0   0.0   ----- 
Mon 15:30   SE 19/ 26  19.2  4.2  ------    0.0   0.0   0.0   0.0   ----- 
Mon 16:00  SSE 19/ 24  19.4  3.6  ------    0.0   0.0   0.0   0.0   ----- 
Mon 16:30    S 17/ 24  20.1  4.6  ------    0.0   0.0   0.0   0.0   ----- 

CAPE BRUNY (CAPE BRUNY)

Site: 094198
Alt: 59.7m
52km S of HUONVILLE


  Time     Wind        Temp  DP   Baro     Rain since   Rain past  Vis(m), Cloud(base in m), Weather
  local        km/h                         9am  last   hr   10m    
Mon 11:00  WSW 35/ 43  15.1  4.2  1018.9    0.0   0.0   0.0   0.0   ----- 
Mon 11:30  WSW 32/ 41  15.3  3.8  1019.0    0.0   0.0   0.0   0.0   ----- 
Mon 12:00  WSW 32/ 41  16.0  4.1  1019.2    0.0   0.0   0.0   0.0   ----- 
Mon 12:30  WSW 32/ 43  16.3  4.4  1019.0    0.0   0.0   0.0   0.0   ----- 
Mon 13:00  WSW 30/ 37  16.8  4.5  1019.0    0.0   0.0   0.0   0.0   ----- 
Mon 13:30  WSW 28/ 37  17.6  4.9  1019.2    0.0   0.0   0.0   0.0   ----- 
Mon 14:00    W 28/ 37  17.7  5.6  1019.2    0.0   0.0   0.0   0.0   ----- 
Mon 14:30  WSW 28/ 37  18.0  5.2  1019.3    0.0   0.0   0.0   0.0   ----- 
Mon 15:00  WSW 28/ 35  18.1  5.3  1019.0    0.0   0.0   0.0   0.0   ----- 
Mon 15:30   SW 22/ 30  18.6  7.4  1018.8    0.0   0.0   0.0   0.0   ----- 
Mon 16:00  WSW 24/ 32  18.9  7.0  1018.6    0.0   0.0   0.0   0.0   ----- 
Mon 16:30  WSW 24/ 37  18.4  8.1  1018.6    0.0   0.0   0.0   0.0   ----- 

DENNES POINT

Site: 094255
Alt: 5.7m
20km S of HOBART


  Time     Wind        Temp  DP   Baro     Rain since   Rain past  Vis(m), Cloud(base in m), Weather
  local        km/h                         9am  last   hr   10m    
Mon 11:00   SW 19/ 32  16.1  2.9  1019.1    0.0   0.0   0.0   0.0   ----- 
Mon 11:30   SW 15/ 28  17.0  3.0  1019.0    0.0   0.0   0.0   0.0   ----- 
Mon 12:00  WSW 17/ 26  17.5  2.3  1019.0    0.0   0.0   0.0   0.0   ----- 
Mon 12:30   SW 15/ 24  18.1  2.4  1019.2    0.0   0.0   0.0   0.0   ----- 
Mon 13:00   SW 15/ 26  18.7  2.9  1019.0    0.0   0.0   0.0   0.0   ----- 
Mon 13:30  SSW 17/ 28  19.9  2.3  1018.9    0.0   0.0   0.0   0.0   ----- 
Mon 14:00   SW 17/ 32  19.4  3.2  1019.0    0.0   0.0   0.0   0.0   ----- 
Mon 14:30  SSW 11/ 22  19.6  3.3  1019.2    0.2   0.2   0.2   0.0   ----- 
Mon 15:00   SW 15/ 20  20.8  3.5  1019.0    0.2   0.0   0.2   0.0   ----- 
Mon 15:30   SW 11/ 22  20.8  4.0  1018.7    0.2   0.0   0.0   0.0   ----- 
Mon 16:00    E 24/ 30  18.6  8.0  1018.8    0.2   0.0   0.0   0.0   ----- 
Mon 16:30    E 22/ 26  18.2  8.2  1018.7    0.2   0.0   0.0   0.0   ----- 

DUNALLEY (STROUD POINT)

Site: 094254
Alt: 12.4m
27km N of PORT ARTHUR


  Time     Wind        Temp  DP   Baro     Rain since   Rain past  Vis(m), Cloud(base in m), Weather
  local        km/h                         9am  last   hr   10m    
Mon 11:00  WSW 35/ 45  14.9  3.7  1018.8    0.0   0.0   0.0   0.0   ----- 
Mon 11:30  WSW 32/ 45  15.4  4.5  1019.1    0.0   0.0   0.0   0.0   ----- 
Mon 12:00  WSW 28/ 35  16.2  4.3  1019.0    0.0   0.0   0.0   0.0   ----- 
Mon 12:30  WSW 26/ 32  16.8  4.5  1019.0    0.0   0.0   0.0   0.0   ----- 
Mon 13:00   SW 22/ 32  17.2  4.2  1019.3    0.0   0.0   0.0   0.0   ----- 
Mon 13:30    S 20/ 24  17.4  3.3  1019.3    0.0   0.0   0.0   0.0   ----- 
Mon 14:00    S 19/ 26  17.9  3.8  1019.4    0.0   0.0   0.0   0.0   ----- 
Mon 14:30    S 19/ 28  18.2  4.7  1019.4    0.0   0.0   0.0   0.0   ----- 
Mon 15:00    S 19/ 24  18.5  5.0  1019.4    0.0   0.0   0.0   0.0   ----- 
Mon 15:30    S 17/ 22  18.7  5.2  1019.1    0.0   0.0   0.0   0.0   ----- 
Mon 16:00    S 15/ 19  18.6  5.8  1019.0    0.0   0.0   0.0   0.0   ----- 
Mon 16:30    S 11/ 17  18.9  4.7  1018.9    0.0   0.0   0.0   0.0   ----- 

GROVE (RESEARCH STATION)

Site: 094220
Alt: 65.0m
5km NNE of HUONVILLE


  Time     Wind        Temp  DP   Baro     Rain since   Rain past  Vis(m), Cloud(base in m), Weather
  local        km/h                         9am  last   hr   10m    
Mon 11:00  WSW 17/ 30  15.0  2.2  ------    0.0   0.0   0.0   0.0   ----- 
Mon 11:30   SW 17/ 24  16.0  3.1  ------    0.0   0.0   0.0   0.0   ----- 
Mon 12:00    W 19/ 30  16.8  3.1  ------    0.0   0.0   0.0   0.0   ----- 
Mon 12:30   SW 17/ 28  16.1  2.5  ------    0.0   0.0   0.0   0.0   ----- 
Mon 13:00   SW 17/ 30  17.6  2.8  ------    0.0   0.0   0.0   0.0   ----- 
Mon 13:30    W 17/ 28  17.8  2.5  ------    0.0   0.0   0.0   0.0   ----- 
Mon 14:00  WSW 17/ 32  19.5  4.0  ------    0.0   0.0   0.0   0.0   ----- 
Mon 14:30   SW 24/ 35  19.6  3.3  ------    0.0   0.0   0.0   0.0   ----- 
Mon 15:00  SSW 15/ 28  19.1  3.3  ------    0.0   0.0   0.0   0.0   ----- 
Mon 15:30   SW 13/ 24  19.5  3.6  ------    0.0   0.0   0.0   0.0   ----- 
Mon 16:00  WSW 15/ 22  19.0  3.6  ------    0.0   0.0   0.0   0.0   ----- 
Mon 16:30  SSW 15/ 26  19.1  3.3  ------    0.0   0.0   0.0   0.0   ----- 

HARTZ MOUNTAIN (KEOGHS PIMPLE)

Site: 094191
Alt: 831.0m
30km SW of HUONVILLE


  Time     Wind        Temp  DP   Baro     Rain since   Rain past  Vis(m), Cloud(base in m), Weather
  local        km/h                         9am  last   hr   10m    
Mon 11:00    W 30/ 43   7.0  2.1  ------    0.0   0.0   0.0   0.0   ----- 
Mon 11:30  WSW 28/ 41   7.7  2.8  ------    0.0   0.0   0.0   0.0   ----- 
Mon 12:00  WSW 26/ 37   9.2  4.8  ------    0.0   0.0   0.0   0.0   ----- 
Mon 12:30  WSW 32/ 45   8.8  2.6  ------    0.0   0.0   0.0   0.0   ----- 
Mon 13:00  WSW 22/ 33  10.5  5.3  ------    0.0   0.0   0.0   0.0   ----- 
Mon 13:30  WSW 28/ 39   9.6  3.6  ------    0.0   0.0   0.0   0.0   ----- 
Mon 14:00  WSW 26/ 37  10.7  3.0  ------    0.0   0.0   0.0   0.0   ----- 
Mon 14:30  WSW 22/ 32  11.4  4.2  ------    0.0   0.0   0.0   0.0   ----- 
Mon 15:00  WSW 22/ 33  12.7  5.6  ------    0.0   0.0   0.0   0.0   ----- 
Mon 15:30  WSW 20/ 32  11.0  4.7  ------    0.0   0.0   0.0   0.0   ----- 
Mon 16:00    W 20/ 28  10.4  3.9  ------    0.0   0.0   0.0   0.0   ----- 
Mon 16:30    W 20/ 28  10.8  4.3  ------    0.0   0.0   0.0   0.0   ----- 

HOBART (ELLERSLIE ROAD)

Site: 094029
Alt: 50.5m
1km SSE of HOBART


  Time     Wind        Temp  DP   Baro     Rain since   Rain past  Vis(m), Cloud(base in m), Weather
  local        km/h                         9am  last   hr   10m    
Mon 11:00  SSW 20/ 41  16.6  1.1  1019.1    0.0   0.0   0.0   0.0   ----- 
Mon 11:30  SSW 24/ 39  16.7  0.8  1018.9    0.0   0.0   0.0   0.0   ----- 
Mon 12:00   SW 11/ 17  17.5  1.5  1019.1    0.0   0.0   0.0   0.0   ----- 
Mon 12:19  SSW 28/ 35  18.8  1.3  1019.1    0.0   0.0  ----   0.0   ----- 
Mon 12:30  WSW 20/ 30  19.3  1.8  1019.1    0.0   0.0   0.0   0.0   ----- 
Mon 13:00    W 11/ 22  18.1  2.4  1019.2    0.0   0.0   0.0   0.0   ----- 
Mon 13:30  ESE 22/ 32  17.9  4.5  1019.1    0.0   0.0   0.0   0.0   ----- 
Mon 14:00  ESE 20/ 26  17.8  4.4  1019.2    0.0   0.0   0.0   0.0   ----- 
Mon 14:30  ESE 19/ 26  18.8  4.9  1019.4    0.0   0.0   0.0   0.0   ----- 
Mon 15:00  ESE 20/ 26  18.7  5.2  1019.2    0.0   0.0   0.0   0.0   ----- 
Mon 15:30  ESE 22/ 28  18.3  4.5  1018.9    0.0   0.0   0.0   0.0   ----- 
Mon 16:00   SE 19/ 22  18.6  5.1  1018.8    0.0   0.0   0.0   0.0   ----- 
Mon 16:30   SE 20/ 28  19.1  6.6  1018.6    0.0   0.0   0.0   0.0   ----- 

KUNANYI (MOUNT WELLINGTON PINNACLE)

Site: 094087
Alt: 1260.5m
7km WSW of HOBART


  Time     Wind        Temp  DP   Baro     Rain since   Rain past  Vis(m), Cloud(base in m), Weather
  local        km/h                         9am  last   hr   10m    
Mon 11:00  WSW 26/ 37   4.8  0.9  ------    0.0   0.0   0.0   0.0   ----- 
Mon 11:30  SSW 22/ 35   5.9  1.4  ------    0.0   0.0   0.0   0.0   ----- 
Mon 12:00   SW 15/ 35   5.0  0.2  ------    0.0   0.0   0.0   0.0   ----- 
Mon 12:30   SW 19/ 26   6.6  1.1  ------    0.0   0.0   0.0   0.0   ----- 
Mon 13:00   SW 19/ 28   7.1  1.6  ------    0.0   0.0   0.0   0.0   ----- 
Mon 13:30    W 15/ 26   7.4  0.6  ------    0.0   0.0   0.0   0.0   ----- 
Mon 14:00   SW 19/ 30   8.3  0.8  ------    0.0   0.0   0.0   0.0   ----- 
Mon 14:30  WSW 19/ 30   8.2  0.9  ------    0.0   0.0   0.0   0.0   ----- 
Mon 15:00  WSW 19/ 28   9.0  1.2  ------    0.0   0.0   0.0   0.0   ----- 
Mon 15:30    W 17/ 24   9.9  2.0  ------    0.0   0.0   0.0   0.0   ----- 
Mon 16:00  NNE  9/ 19   8.8  2.2  ------    0.0   0.0   0.0   0.0   ----- 
Mon 16:30  WNW 13/ 24  10.3  2.4  ------    0.0   0.0   0.0   0.0   ----- 

MAATSUYKER ISLAND LIGHTHOUSE

Site: 094041
Alt: 146.5m
94km SW of HUONVILLE


  Time     Wind        Temp  DP   Baro     Rain since   Rain past  Vis(m), Cloud(base in m), Weather
  local        km/h                         9am  last   hr   10m    
Mon 11:00   NW 28/ 35  13.5  4.9  1019.4    0.0   0.0   0.0   0.0   ----- 
Mon 11:30  NNW 33/ 39  13.7  5.6  1019.3    0.0   0.0   0.0   0.0   ----- 
Mon 12:00  NNW 37/ 43  13.8  6.7  1019.2    0.0   0.0   0.0   0.0   ----- 
Mon 12:30  NNW 43/ 50  13.3  6.4  1019.2    0.0   0.0   0.0   0.0   ----- 
Mon 13:00  NNW 43/ 50  13.1  6.5  1019.5    0.0   0.0   0.0   0.0   ----- 
Mon 13:30    N 46/ 54  12.6  6.6  1019.3    0.0   0.0   0.0   0.0   ----- 
Mon 14:00  NNW 45/ 54  12.9  7.6  1019.4    0.0   0.0   0.0   0.0   ----- 
Mon 14:30  NNW 52/ 61  12.5  7.8  1019.5    0.0   0.0   0.0   0.0   ----- 
Mon 15:00  NNW 41/ 48  12.5  8.2  1019.7    0.0   0.0   0.0   0.0   ----- 
Mon 15:30  NNW 46/ 54  13.2  7.6  1019.5    0.0   0.0   0.0   0.0   ----- 
Mon 16:00    N 52/ 58  13.6  7.8  1019.2    0.0   0.0   0.0   0.0   ----- 
Mon 16:30  NNW 52/ 59  14.1  8.1  1019.1    0.0   0.0   0.0   0.0   ----- 

TASMAN ISLAND

Site: 094155
Alt: 240.0m
17km SE of PORT ARTHUR


  Time     Wind        Temp  DP   Baro     Rain since   Rain past  Vis(m), Cloud(base in m), Weather
  local        km/h                         9am  last   hr   10m    
Mon 11:00  SSW 30/ 59  12.1  4.6  1018.3    0.0   0.0   0.0   0.0   ----- 
Mon 11:30  SSW 35/ 58  12.2  2.9  1018.5    0.0   0.0   0.0   0.0   ----- 
Mon 12:00  SSW 28/ 45  12.5  4.7  1018.7    0.0   0.0   0.0   0.0   ----- 
Mon 12:01  SSW 28/ 48  12.7  4.7  1018.7    0.0   0.0  ----   0.0   ----- 
Mon 12:30  SSW 26/ 52  12.4  5.8  1018.6    0.0   0.0   0.0   0.0   ----- 
Mon 12:31  SSW 28/ 52  12.3  5.7  1018.6    0.0   0.0  ----   0.0   ----- 
Mon 13:00  SSW 22/ 52  13.9  5.3  1018.7    0.0   0.0   0.0   0.0   ----- 
Mon 13:30   SW 19/ 39  14.0  5.1  1019.0    0.0   0.0   0.0   0.0   ----- 
Mon 14:00   SW 24/ 46  14.2  5.3  1019.3    0.0   0.0   0.0   0.0   ----- 
Mon 14:30  SSW 22/ 46  13.9  5.3  1019.4    0.0   0.0   0.0   0.0   ----- 
Mon 15:00   SW 17/ 35  14.8  6.1  1019.5    0.0   0.0   0.0   0.0   ----- 
Mon 15:27  SSW 28/ 48  14.2  6.1  1019.4    0.0   0.0  ----   0.0   ----- 
Mon 15:30  SSW 28/ 48  14.1  6.0  1019.4    0.0   0.0   0.0   0.0   ----- 
Mon 16:00  SSW 28/ 39  15.0  6.3  1019.2    0.0   0.0   0.0   0.0   ----- 
Mon 16:30  SSW 26/ 39  14.6  6.7  1019.3    0.0   0.0   0.0   0.0   ----- 

TUNNACK FIRE STATION

Site: 094195
Alt: 461.5m
19km SSE of OATLANDS


  Time     Wind        Temp  DP   Baro     Rain since   Rain past  Vis(m), Cloud(base in m), Weather
  local        km/h                         9am  last   hr   10m    
Mon 11:00  SSW 19/ 30  13.1  1.5  1018.6    0.0   0.0   0.0   0.0   ----- 
Mon 11:30  SSW 20/ 32  13.1  0.5  1018.5    0.0   0.0   0.0   0.0   ----- 
Mon 12:00   SW 17/ 30  14.3  0.6  1018.7    0.0   0.0   0.0   0.0   ----- 
Mon 12:30   SW 17/ 24  14.9  0.7  1019.0    0.0   0.0   0.0   0.0   ----- 
Mon 13:00    W 13/ 19  16.1  0.3  1018.8    0.0   0.0   0.0   0.0   ----- 
Mon 13:30   SW  9/ 17  16.6  1.1  1018.8    0.0   0.0   0.0   0.0   ----- 
Mon 14:00   SW 13/ 20  16.9  1.0  1018.8    0.0   0.0   0.0   0.0   ----- 
Mon 14:30   SW 13/ 20  18.1  2.0  1018.9    0.0   0.0   0.0   0.0   ----- 
Mon 15:00  WSW 19/ 28  17.9  1.4  1018.8    0.0   0.0   0.0   0.0   ----- 
Mon 15:30   SW 11/ 15  17.8  1.3  1018.8    0.0   0.0   0.0   0.0   ----- 
Mon 16:00  WSW 17/ 24  18.3  1.8  1018.7    0.0   0.0   0.0   0.0   ----- 
Mon 16:30  SSW 13/ 19  17.9  2.2  1018.6    0.0   0.0   0.0   0.0   -----